createdAt,value
2018-08-31T00:01:31.123Z,65.68
2018-08-31T00:05:47.022Z,65.58
2018-08-31T00:11:00.767Z,65.47
2018-08-31T00:15:04.324Z,65.29
2018-08-31T00:19:07.803Z,65.11
2018-08-31T00:23:11.311Z,65.73
2018-08-31T00:27:25.971Z,65.32
2018-08-31T00:33:43.985Z,65.71
2018-08-31T00:38:01.668Z,65.07
2018-08-31T00:43:14.478Z,65.74
2018-08-31T00:47:18.019Z,65.57
2018-08-31T00:51:21.734Z,66.11
2018-08-31T00:55:25.285Z,65.91
2018-08-31T00:59:28.778Z,66.40
2018-08-31T01:03:32.259Z,66.55
2018-08-31T01:07:35.724Z,66.46
2018-08-31T01:11:39.237Z,66.28
2018-08-31T01:15:42.667Z,65.80
2018-08-31T01:19:46.204Z,65.70
2018-08-31T01:23:49.680Z,66.26
2018-08-31T01:27:53.293Z,66.33
2018-08-31T01:31:56.872Z,65.63
2018-08-31T01:36:00.407Z,66.03
2018-08-31T01:40:03.929Z,65.31
2018-08-31T01:44:07.526Z,65.83
2018-08-31T01:48:11.033Z,65.42
2018-08-31T01:52:14.541Z,66.02
2018-08-31T01:56:18.044Z,65.15
2018-08-31T02:00:21.530Z,65.61
2018-08-31T02:04:25.065Z,65.88
2018-08-31T02:08:28.607Z,65.74
2018-08-31T02:12:32.125Z,65.57
2018-08-31T02:16:35.595Z,65.74
2018-08-31T02:20:43.350Z,66.11
2018-08-31T02:24:46.832Z,66.25
2018-08-31T02:28:50.306Z,66.30
2018-08-31T02:32:53.806Z,66.05
2018-08-31T02:36:57.319Z,65.85
2018-08-31T02:41:00.820Z,66.21
2018-08-31T02:45:04.643Z,66.22
2018-08-31T02:49:08.182Z,66.27
2018-08-31T02:53:11.714Z,66.50
2018-08-31T02:57:15.190Z,66.67
2018-08-31T03:01:18.678Z,66.69
2018-08-31T03:05:22.181Z,67.00
2018-08-31T03:09:25.644Z,66.93
2018-08-31T03:13:29.130Z,67.47
2018-08-31T03:17:32.624Z,67.06
2018-08-31T03:21:36.117Z,66.97
2018-08-31T03:25:39.637Z,66.96
2018-08-31T03:29:43.139Z,67.58
2018-08-31T03:33:46.650Z,67.03
2018-08-31T03:37:50.162Z,67.12
2018-08-31T03:41:53.676Z,67.01
2018-08-31T03:45:57.175Z,66.91
2018-08-31T03:50:00.645Z,66.93
2018-08-31T03:54:04.166Z,66.89
2018-08-31T03:58:07.659Z,67.19
2018-08-31T04:02:11.162Z,67.01
2018-08-31T04:06:14.646Z,67.39
2018-08-31T04:10:18.132Z,67.32
2018-08-31T04:14:21.623Z,67.28
2018-08-31T04:18:25.169Z,67.41
2018-08-31T04:22:28.780Z,67.26
2018-08-31T04:26:32.236Z,67.58
2018-08-31T04:30:35.808Z,68.04
2018-08-31T04:34:39.315Z,67.82
2018-08-31T04:38:42.816Z,67.85
2018-08-31T04:42:46.307Z,67.84
2018-08-31T04:46:49.816Z,67.97
2018-08-31T04:50:53.340Z,68.02
2018-08-31T04:54:56.843Z,67.80
2018-08-31T04:59:00.337Z,68.25
2018-08-31T05:03:03.902Z,68.49
2018-08-31T05:07:07.453Z,68.46
2018-08-31T05:11:10.955Z,68.34
2018-08-31T05:15:14.527Z,68.27
2018-08-31T05:19:18.010Z,68.40
2018-08-31T05:23:21.509Z,68.62
2018-08-31T05:27:24.951Z,68.44
2018-08-31T05:31:28.572Z,68.29
2018-08-31T05:35:32.066Z,68.59
2018-08-31T05:39:35.535Z,68.46
2018-08-31T05:43:39.042Z,68.69
2018-08-31T05:47:42.482Z,68.62
2018-08-31T05:51:45.972Z,68.37
2018-08-31T05:55:49.463Z,68.44
2018-08-31T05:59:52.960Z,68.50
2018-08-31T06:03:56.437Z,68.55
2018-08-31T06:07:59.909Z,67.64
2018-08-31T06:12:03.453Z,67.61
2018-08-31T06:16:06.985Z,67.97
2018-08-31T06:20:10.435Z,67.87
2018-08-31T06:24:13.916Z,67.30
2018-08-31T06:28:17.402Z,67.30
2018-08-31T06:32:20.929Z,67.20
2018-08-31T06:36:24.467Z,66.67
2018-08-31T06:40:27.998Z,65.75
2018-08-31T06:44:31.603Z,64.87
2018-08-31T06:48:35.112Z,64.66
2018-08-31T06:52:38.637Z,64.66
2018-08-31T06:56:42.152Z,64.96
2018-08-31T07:00:45.699Z,64.89
2018-08-31T07:04:49.207Z,65.03
2018-08-31T07:08:52.667Z,64.09
2018-08-31T07:12:56.186Z,64.00
2018-08-31T07:16:59.650Z,63.15
2018-08-31T07:21:03.429Z,64.12
2018-08-31T07:25:06.895Z,63.90
2018-08-31T07:29:10.367Z,63.60
2018-08-31T07:33:13.879Z,64.26
2018-08-31T07:37:17.417Z,64.38
2018-08-31T07:41:21.025Z,63.45
2018-08-31T07:45:24.544Z,62.98
2018-08-31T07:49:28.419Z,63.69
2018-08-31T07:53:32.134Z,62.22
2018-08-31T07:57:35.642Z,63.29
2018-08-31T08:01:39.149Z,63.25
2018-08-31T08:05:43.007Z,63.03
2018-08-31T08:09:46.425Z,63.38
2018-08-31T08:13:49.944Z,62.93
2018-08-31T08:17:53.448Z,62.58
2018-08-31T08:21:56.952Z,62.06
2018-08-31T08:26:00.475Z,62.33
2018-08-31T08:30:03.950Z,62.06
2018-08-31T08:34:07.426Z,62.08
2018-08-31T08:38:19.771Z,61.11
2018-08-31T08:42:23.342Z,60.88
2018-08-31T08:46:26.807Z,59.80
2018-08-31T08:50:30.298Z,59.76
2018-08-31T08:54:33.849Z,60.82
2018-08-31T08:58:37.357Z,59.86
2018-08-31T09:02:40.797Z,59.22
2018-08-31T09:06:44.335Z,58.46
2018-08-31T09:10:47.843Z,57.88
2018-08-31T09:14:51.356Z,58.98
2018-08-31T09:18:54.933Z,58.63
2018-08-31T09:22:58.419Z,58.57
2018-08-31T09:27:01.983Z,57.90
2018-08-31T09:31:09.662Z,57.33
2018-08-31T09:35:13.174Z,57.17
2018-08-31T09:39:16.762Z,57.74
2018-08-31T09:43:20.314Z,56.48
2018-08-31T09:47:23.823Z,55.71
2018-08-31T09:51:27.377Z,55.87
2018-08-31T09:55:30.864Z,55.70
2018-08-31T09:59:34.357Z,55.02
2018-08-31T10:03:37.913Z,55.35
2018-08-31T10:07:41.431Z,55.12
2018-08-31T10:11:44.910Z,54.22
2018-08-31T10:15:48.499Z,53.87
2018-08-31T10:19:52.000Z,53.75
2018-08-31T10:23:55.478Z,53.65
2018-08-31T10:27:58.986Z,52.85
2018-08-31T10:32:04.073Z,53.48
2018-08-31T10:36:07.558Z,52.27
2018-08-31T10:40:11.050Z,53.35
2018-08-31T10:44:14.523Z,53.11
2018-08-31T10:48:18.025Z,53.10
2018-08-31T10:52:21.577Z,53.57
2018-08-31T10:56:25.116Z,52.78
2018-08-31T11:00:28.614Z,53.37
2018-08-31T11:04:32.160Z,52.21
2018-08-31T11:08:35.649Z,51.68
2018-08-31T11:12:39.317Z,52.37
2018-08-31T11:16:42.741Z,52.35
2018-08-31T11:20:46.249Z,52.01
2018-08-31T11:24:49.792Z,50.58
2018-08-31T11:28:53.287Z,51.14
2018-08-31T11:32:56.978Z,50.70
2018-08-31T11:37:00.584Z,50.39
2018-08-31T11:41:04.584Z,50.80
2018-08-31T11:45:08.153Z,49.50
2018-08-31T11:49:11.689Z,50.29
2018-08-31T11:53:15.239Z,50.47
2018-08-31T11:57:18.751Z,49.97
2018-08-31T12:01:22.309Z,49.04
2018-08-31T12:05:25.763Z,49.22
2018-08-31T12:09:29.273Z,49.21
2018-08-31T12:13:32.985Z,48.98
2018-08-31T12:17:36.504Z,47.17
2018-08-31T12:21:40.012Z,47.83
2018-08-31T12:25:43.542Z,47.33
2018-08-31T12:29:47.009Z,46.86
2018-08-31T12:33:50.497Z,46.95
2018-08-31T12:37:54.032Z,46.33
2018-08-31T12:41:57.505Z,47.28
2018-08-31T12:46:01.265Z,47.22
2018-08-31T12:50:04.731Z,44.86
2018-08-31T12:54:08.245Z,44.20
2018-08-31T12:58:11.805Z,45.10
2018-08-31T13:02:15.314Z,45.01
2018-08-31T13:06:18.853Z,43.74
2018-08-31T13:10:22.375Z,43.68
2018-08-31T13:14:25.970Z,43.55
2018-08-31T13:18:29.497Z,43.16
2018-08-31T13:22:33.020Z,43.56
2018-08-31T13:26:36.509Z,44.05
2018-08-31T13:30:40.248Z,44.56
2018-08-31T13:34:43.776Z,44.34
2018-08-31T13:38:47.265Z,43.89
2018-08-31T13:42:50.754Z,44.51
2018-08-31T13:46:54.342Z,44.63
2018-08-31T13:50:57.818Z,44.35
2018-08-31T13:55:01.324Z,45.52
2018-08-31T13:59:05.119Z,45.17
2018-08-31T14:03:08.643Z,44.72
2018-08-31T14:07:12.215Z,44.50
2018-08-31T14:11:15.827Z,44.72
2018-08-31T14:15:19.419Z,44.98
2018-08-31T14:19:22.919Z,44.41
2018-08-31T14:23:26.476Z,44.13
2018-08-31T14:27:29.971Z,43.59
2018-08-31T14:31:33.464Z,43.71
2018-08-31T14:35:37.055Z,42.87
2018-08-31T14:39:40.691Z,43.65
2018-08-31T14:43:44.377Z,43.99
2018-08-31T14:47:47.891Z,44.36
2018-08-31T14:51:51.403Z,44.60
2018-08-31T14:55:54.929Z,44.38
2018-08-31T14:59:58.419Z,43.99
2018-08-31T15:04:02.553Z,44.82
2018-08-31T15:08:06.018Z,43.95
2018-08-31T15:12:09.522Z,44.72
2018-08-31T15:16:13.045Z,43.83
2018-08-31T15:20:16.546Z,44.68
2018-08-31T15:24:20.053Z,45.25
2018-08-31T15:28:23.527Z,44.56
2018-08-31T15:32:27.009Z,44.83
2018-08-31T15:36:30.514Z,44.36
2018-08-31T15:40:34.035Z,44.80
2018-08-31T15:44:37.599Z,44.15
2018-08-31T15:48:41.117Z,43.90
2018-08-31T15:52:44.579Z,43.52
2018-08-31T15:57:01.778Z,44.07
2018-08-31T16:01:05.379Z,44.14
2018-08-31T16:05:09.199Z,44.07
2018-08-31T16:09:12.714Z,44.71
2018-08-31T16:13:16.214Z,43.54
2018-08-31T16:17:19.698Z,43.86
2018-08-31T16:21:23.142Z,44.08
2018-08-31T16:25:26.631Z,44.15
2018-08-31T16:29:30.130Z,44.56
2018-08-31T16:33:33.733Z,45.06
2018-08-31T16:37:37.223Z,45.47
2018-08-31T16:41:40.731Z,45.88
2018-08-31T16:45:44.263Z,45.51
2018-08-31T16:49:47.726Z,44.09
2018-08-31T16:53:51.202Z,44.80
2018-08-31T16:57:54.714Z,44.87
2018-08-31T17:01:58.189Z,45.08
2018-08-31T17:06:01.728Z,45.94
2018-08-31T17:10:05.447Z,46.02
2018-08-31T17:14:08.957Z,45.67
2018-08-31T17:18:12.467Z,46.47
2018-08-31T17:22:16.061Z,46.61
2018-08-31T17:26:24.913Z,46.59
2018-08-31T17:30:28.389Z,46.32
2018-08-31T17:34:37.178Z,47.37
2018-08-31T17:38:40.658Z,47.39
2018-08-31T17:42:44.137Z,47.81
2018-08-31T17:46:47.611Z,47.58
2018-08-31T17:50:51.122Z,47.49
2018-08-31T17:54:54.562Z,47.11
2018-08-31T17:58:58.065Z,47.28
2018-08-31T18:03:01.573Z,47.52
2018-08-31T18:07:05.064Z,47.79
2018-08-31T18:11:08.806Z,48.13
2018-08-31T18:15:12.282Z,48.39
2018-08-31T18:19:15.756Z,49.90
2018-08-31T18:23:19.266Z,50.38
2018-08-31T18:27:22.757Z,50.08
2018-08-31T18:31:26.246Z,50.59
2018-08-31T18:35:29.805Z,51.50
2018-08-31T18:39:33.244Z,52.05
2018-08-31T18:43:36.844Z,51.85
2018-08-31T18:47:40.384Z,52.54
2018-08-31T18:51:43.938Z,52.93
2018-08-31T18:55:47.605Z,52.85
2018-08-31T18:59:51.114Z,52.39
2018-08-31T19:03:54.566Z,52.62
2018-08-31T19:07:58.936Z,53.03
2018-08-31T19:12:02.418Z,53.13
2018-08-31T19:16:06.028Z,52.61
2018-08-31T19:20:09.513Z,52.60
2018-08-31T19:24:13.039Z,52.04
2018-08-31T19:28:16.508Z,52.69
2018-08-31T19:32:20.016Z,52.89
2018-08-31T19:36:23.526Z,54.24
2018-08-31T19:40:27.016Z,54.40
2018-08-31T19:44:30.538Z,55.02
2018-08-31T19:48:33.983Z,55.63
2018-08-31T19:52:37.454Z,55.88
2018-08-31T19:56:41.041Z,56.22
2018-08-31T20:00:44.476Z,56.53
2018-08-31T20:04:48.035Z,56.88
2018-08-31T20:08:51.592Z,56.89
2018-08-31T20:12:55.083Z,57.78
2018-08-31T20:16:58.527Z,57.28
2018-08-31T20:21:02.013Z,57.62
2018-08-31T20:25:05.785Z,56.98
2018-08-31T20:29:09.254Z,57.58
2018-08-31T20:33:12.745Z,57.54
2018-08-31T20:37:16.245Z,58.15
2018-08-31T20:41:19.700Z,58.15
2018-08-31T20:45:23.385Z,58.48
2018-08-31T20:49:26.827Z,58.40
2018-08-31T20:53:30.327Z,59.04
2018-08-31T20:57:33.822Z,59.28
2018-08-31T21:01:37.492Z,60.40
2018-08-31T21:05:41.256Z,60.81
2018-08-31T21:09:44.738Z,61.26
2018-08-31T21:13:48.239Z,61.23
2018-08-31T21:17:51.748Z,61.58
2018-08-31T21:21:55.261Z,61.69
2018-08-31T21:25:58.844Z,62.11
2018-08-31T21:30:02.495Z,61.99
2018-08-31T21:34:06.027Z,62.87
2018-08-31T21:38:09.509Z,62.78
2018-08-31T21:42:13.246Z,62.34
2018-08-31T21:46:16.650Z,62.81
2018-08-31T21:50:20.135Z,63.78
2018-08-31T21:54:23.703Z,63.36
2018-08-31T21:58:27.163Z,63.29
2018-08-31T22:02:30.615Z,63.50
2018-08-31T22:06:34.097Z,63.98
2018-08-31T22:10:37.606Z,64.20
2018-08-31T22:14:41.090Z,63.88
2018-08-31T22:18:44.576Z,64.48
2018-08-31T22:22:48.058Z,64.70
2018-08-31T22:26:51.539Z,64.35
2018-08-31T22:30:55.059Z,64.51
2018-08-31T22:34:58.584Z,65.01
2018-08-31T22:39:02.269Z,64.58
2018-08-31T22:43:06.132Z,64.99
2018-08-31T22:47:09.577Z,64.67
2018-08-31T22:51:13.762Z,65.08
2018-08-31T22:55:17.220Z,65.22
2018-08-31T22:59:20.704Z,64.85
2018-08-31T23:03:24.211Z,64.90
2018-08-31T23:07:33.010Z,64.93
2018-08-31T23:11:36.511Z,64.82
2018-08-31T23:15:39.999Z,64.78
2018-08-31T23:19:43.573Z,63.93
2018-08-31T23:23:47.907Z,64.05
2018-08-31T23:27:51.494Z,63.56
2018-08-31T23:31:54.979Z,63.54
2018-08-31T23:35:58.450Z,64.03
2018-08-31T23:40:01.965Z,64.08
2018-08-31T23:44:05.547Z,64.11
2018-08-31T23:48:08.996Z,64.69
2018-08-31T23:52:12.484Z,63.98
2018-08-31T23:56:15.959Z,64.20
